createdAt,value
2018-09-05T00:00:12.912Z,17.90
2018-09-05T00:02:41.133Z,16.70
2018-09-05T00:05:09.699Z,16.77
2018-09-05T00:07:37.859Z,14.67
2018-09-05T00:10:06.059Z,15.10
2018-09-05T00:12:34.252Z,14.87
2018-09-05T00:15:02.451Z,16.67
2018-09-05T00:17:30.630Z,14.23
2018-09-05T00:19:58.840Z,14.60
2018-09-05T00:22:27.220Z,17.40
2018-09-05T00:24:55.504Z,17.13
2018-09-05T00:27:23.932Z,15.40
2018-09-05T00:29:52.126Z,19.03
2018-09-05T00:32:20.341Z,15.20
2018-09-05T00:34:48.547Z,16.13
2018-09-05T00:37:16.733Z,16.60
2018-09-05T00:39:44.926Z,16.60
2018-09-05T00:42:13.100Z,21.60
2018-09-05T00:44:41.312Z,19.00
2018-09-05T00:47:46.333Z,17.53
2018-09-05T00:50:14.437Z,21.90
2018-09-05T00:52:42.650Z,20.20
2018-09-05T00:55:11.055Z,15.87
2018-09-05T00:57:39.779Z,21.27
2018-09-05T01:00:08.412Z,19.27
2018-09-05T01:02:36.931Z,17.57
2018-09-05T01:05:05.191Z,17.70
2018-09-05T01:07:33.558Z,18.30
2018-09-05T01:10:02.075Z,21.47
2018-09-05T01:12:30.710Z,21.90
2018-09-05T01:14:59.372Z,16.83
2018-09-05T01:17:27.783Z,17.23
2018-09-05T01:19:56.289Z,17.70
2018-09-05T01:22:24.911Z,19.57
2018-09-05T01:24:53.352Z,17.37
2018-09-05T01:27:22.173Z,16.90
2018-09-05T01:29:50.812Z,24.07
2018-09-05T01:32:19.089Z,17.83
2018-09-05T01:34:48.030Z,17.67
2018-09-05T01:37:16.370Z,21.60
2018-09-05T01:39:45.021Z,19.37
2018-09-05T01:42:13.423Z,18.83
2018-09-05T01:44:42.011Z,19.20
2018-09-05T01:47:10.475Z,24.97
2018-09-05T01:49:38.953Z,21.70
2018-09-05T01:52:07.358Z,24.77
2018-09-05T01:54:35.911Z,19.20
2018-09-05T01:57:04.488Z,20.93
2018-09-05T01:59:33.083Z,22.93
2018-09-05T02:02:01.673Z,21.00
2018-09-05T02:04:30.196Z,21.40
2018-09-05T02:06:58.637Z,21.00
2018-09-05T02:09:27.114Z,21.13
2018-09-05T02:11:55.916Z,20.77
2018-09-05T02:14:24.252Z,21.70
2018-09-05T02:16:52.938Z,26.50
2018-09-05T02:19:21.403Z,26.03
2018-09-05T02:21:49.796Z,24.27
2018-09-05T02:24:18.261Z,24.50
2018-09-05T02:26:46.677Z,22.23
2018-09-05T02:29:15.106Z,22.07
2018-09-05T02:31:43.543Z,25.03
2018-09-05T02:34:12.001Z,21.00
2018-09-05T02:36:40.482Z,18.63
2018-09-05T02:39:10.187Z,20.97
2018-09-05T02:41:38.710Z,23.87
2018-09-05T02:44:12.608Z,23.00
2018-09-05T02:46:41.064Z,26.73
2018-09-05T02:49:09.853Z,25.17
2018-09-05T02:51:38.571Z,22.83
2018-09-05T02:54:07.136Z,24.07
2018-09-05T02:56:35.495Z,25.63
2018-09-05T02:59:03.898Z,21.60
2018-09-05T03:01:32.437Z,19.07
2018-09-05T03:04:00.806Z,21.73
2018-09-05T03:06:29.216Z,25.20
2018-09-05T03:08:57.544Z,28.77
2018-09-05T03:11:25.965Z,26.13
2018-09-05T03:13:54.357Z,25.77
2018-09-05T03:16:22.959Z,25.10
2018-09-05T03:18:51.422Z,26.97
2018-09-05T03:21:20.019Z,26.00
2018-09-05T03:23:48.497Z,24.80
2018-09-05T03:26:16.955Z,33.53
2018-09-05T03:28:45.642Z,37.37
2018-09-05T03:31:14.315Z,37.33
2018-09-05T03:33:42.802Z,36.47
2018-09-05T03:36:11.387Z,29.43
2018-09-05T03:38:39.864Z,25.87
2018-09-05T03:41:08.447Z,24.47
2018-09-05T03:43:36.815Z,23.77
2018-09-05T03:46:05.615Z,27.23
2018-09-05T03:48:34.027Z,25.27
2018-09-05T03:51:02.574Z,33.60
2018-09-05T03:53:31.287Z,28.23
2018-09-05T03:55:59.772Z,23.87
2018-09-05T03:58:28.253Z,27.50
2018-09-05T04:00:56.992Z,29.20
2018-09-05T04:03:26.052Z,22.37
2018-09-05T04:05:54.583Z,31.03
2018-09-05T04:08:23.271Z,26.00
2018-09-05T04:10:51.775Z,26.37
2018-09-05T04:13:20.241Z,34.20
2018-09-05T04:15:48.943Z,28.80
2018-09-05T04:18:17.419Z,32.67
2018-09-05T04:20:45.897Z,30.07
2018-09-05T04:23:14.276Z,31.53
2018-09-05T04:25:42.763Z,34.13
2018-09-05T04:28:11.503Z,30.77
2018-09-05T04:30:39.913Z,29.50
2018-09-05T04:33:08.490Z,27.37
2018-09-05T04:35:36.870Z,32.47
2018-09-05T04:38:05.361Z,36.03
2018-09-05T04:40:33.800Z,31.90
2018-09-05T04:43:02.184Z,32.03
2018-09-05T04:45:30.697Z,37.17
2018-09-05T04:47:59.186Z,32.77
2018-09-05T04:50:27.719Z,36.87
2018-09-05T04:52:56.377Z,31.20
2018-09-05T04:55:24.632Z,33.00
2018-09-05T04:57:53.078Z,34.03
2018-09-05T05:00:21.674Z,32.13
2018-09-05T05:02:50.215Z,30.47
2018-09-05T05:05:19.335Z,29.10
2018-09-05T05:07:47.824Z,35.03
2018-09-05T05:10:16.344Z,31.50
2018-09-05T05:12:44.865Z,37.27
2018-09-05T05:15:13.384Z,26.67
2018-09-05T05:17:42.075Z,33.47
2018-09-05T05:20:17.203Z,27.03
2018-09-05T05:22:45.594Z,32.67
2018-09-05T05:25:15.931Z,26.93
2018-09-05T05:27:47.257Z,32.47
2018-09-05T05:30:16.355Z,38.00
2018-09-05T05:32:44.810Z,34.40
2018-09-05T05:35:13.193Z,29.53
2018-09-05T05:37:41.591Z,32.40
2018-09-05T05:40:10.185Z,27.67
2018-09-05T05:42:38.578Z,36.07
2018-09-05T05:45:07.218Z,28.53
2018-09-05T05:47:35.786Z,27.60
2018-09-05T05:50:04.522Z,29.90
2018-09-05T05:52:33.190Z,32.57
2018-09-05T05:55:02.676Z,35.10
2018-09-05T05:57:31.284Z,34.37
2018-09-05T05:59:59.398Z,30.30
2018-09-05T06:02:27.968Z,30.60
2018-09-05T06:04:56.520Z,36.00
2018-09-05T06:07:24.868Z,31.27
2018-09-05T06:09:53.585Z,29.83
2018-09-05T06:12:22.043Z,33.67
2018-09-05T06:14:51.020Z,30.07
2018-09-05T06:17:20.131Z,30.53
2018-09-05T06:19:48.593Z,32.07
2018-09-05T06:22:17.642Z,27.90
2018-09-05T06:24:46.473Z,26.23
2018-09-05T06:27:15.060Z,32.13
2018-09-05T06:29:43.703Z,30.83
2018-09-05T06:32:12.428Z,28.50
2018-09-05T06:34:40.999Z,32.93
2018-09-05T06:37:09.915Z,30.73
2018-09-05T06:39:38.736Z,27.20
2018-09-05T06:42:07.405Z,33.73
2018-09-05T06:44:36.429Z,34.07
2018-09-05T06:47:05.351Z,28.70
2018-09-05T06:49:34.262Z,25.70
2018-09-05T06:52:03.002Z,26.30
2018-09-05T06:54:31.883Z,27.87
2018-09-05T06:57:00.760Z,28.00
2018-09-05T06:59:29.164Z,28.57
2018-09-05T07:01:58.234Z,34.47
2018-09-05T07:04:27.290Z,27.03
2018-09-05T07:06:56.140Z,29.77
2018-09-05T07:09:25.311Z,27.13
2018-09-05T07:11:55.351Z,27.03
2018-09-05T07:14:24.188Z,31.03
2018-09-05T07:16:52.754Z,31.20
2018-09-05T07:19:21.861Z,22.93
2018-09-05T07:21:50.796Z,23.90
2018-09-05T07:24:19.490Z,18.67
2018-09-05T07:26:48.020Z,23.97
2018-09-05T07:29:17.475Z,26.73
2018-09-05T07:31:46.234Z,25.03
2018-09-05T07:34:15.111Z,23.73
2018-09-05T07:36:44.208Z,21.00
2018-09-05T07:39:12.820Z,27.37
2018-09-05T07:41:41.342Z,25.03
2018-09-05T07:44:10.454Z,19.60
2018-09-05T07:46:39.705Z,22.07
2018-09-05T07:49:08.680Z,20.67
2018-09-05T07:51:37.570Z,18.50
2018-09-05T07:54:06.629Z,22.90
2018-09-05T07:56:35.148Z,24.70
2018-09-05T07:59:03.747Z,22.23
2018-09-05T08:01:32.956Z,24.47
2018-09-05T08:04:01.620Z,22.30
2018-09-05T08:06:30.630Z,18.60
2018-09-05T08:08:59.400Z,20.80
2018-09-05T08:11:28.075Z,24.17
2018-09-05T08:13:56.468Z,23.33
2018-09-05T08:16:31.958Z,24.93
2018-09-05T08:19:00.656Z,21.50
2018-09-05T08:21:30.312Z,28.80
2018-09-05T08:23:59.033Z,19.37
2018-09-05T08:26:28.588Z,21.47
2018-09-05T08:28:57.324Z,25.97
2018-09-05T08:31:25.854Z,22.67
2018-09-05T08:33:54.252Z,22.23
2018-09-05T08:36:23.300Z,22.80
2018-09-05T08:38:51.642Z,25.67
2018-09-05T08:41:20.045Z,26.63
2018-09-05T08:43:49.059Z,20.57
2018-09-05T08:46:17.590Z,20.67
2018-09-05T08:48:45.996Z,20.00
2018-09-05T08:51:14.520Z,18.80
2018-09-05T08:53:42.989Z,28.37
2018-09-05T08:56:11.767Z,23.50
2018-09-05T08:58:40.226Z,29.73
2018-09-05T09:01:08.682Z,28.73
2018-09-05T09:03:37.165Z,28.13
2018-09-05T09:06:05.949Z,25.43
2018-09-05T09:08:34.411Z,18.27
2018-09-05T09:11:03.012Z,23.37
2018-09-05T09:13:31.936Z,20.17
2018-09-05T09:16:00.398Z,17.40
2018-09-05T09:18:29.349Z,20.13
2018-09-05T09:20:58.046Z,20.03
2018-09-05T09:23:27.163Z,20.20
2018-09-05T09:25:55.830Z,17.47
2018-09-05T09:28:24.762Z,18.70
2018-09-05T09:30:53.396Z,17.43
2018-09-05T09:33:22.077Z,21.70
2018-09-05T09:35:51.103Z,18.30
2018-09-05T09:38:19.988Z,17.03
2018-09-05T09:40:49.583Z,19.13
2018-09-05T09:43:18.363Z,16.80
2018-09-05T09:45:47.051Z,18.33
2018-09-05T09:48:16.184Z,20.00
2018-09-05T09:50:45.051Z,19.37
2018-09-05T09:53:13.929Z,17.17
2018-09-05T09:55:42.624Z,16.43
2018-09-05T09:58:11.072Z,18.47
2018-09-05T10:00:44.889Z,16.80
2018-09-05T10:03:18.934Z,16.07
2018-09-05T10:05:52.824Z,17.77
2018-09-05T10:08:26.693Z,16.17
2018-09-05T10:11:02.083Z,22.20
2018-09-05T10:13:36.076Z,18.50
2018-09-05T10:16:10.164Z,16.47
2018-09-05T10:18:41.151Z,17.60
2018-09-05T10:21:09.636Z,14.60
2018-09-05T10:23:38.977Z,18.80
2018-09-05T10:26:08.202Z,15.27
2018-09-05T10:28:36.952Z,15.87
2018-09-05T10:31:05.699Z,16.67
2018-09-05T10:33:34.139Z,16.13
2018-09-05T10:36:03.118Z,17.00
2018-09-05T10:38:31.878Z,19.03
2018-09-05T10:41:00.529Z,19.57
2018-09-05T10:43:29.198Z,15.40
2018-09-05T10:45:57.997Z,20.43
2018-09-05T10:48:26.760Z,17.97
2018-09-05T10:50:56.063Z,15.20
2018-09-05T10:53:24.646Z,16.93
2018-09-05T10:55:53.144Z,15.47
2018-09-05T10:58:22.840Z,18.30
2018-09-05T11:00:51.418Z,15.07
2018-09-05T11:03:20.180Z,12.00
2018-09-05T11:05:48.964Z,13.90
2018-09-05T11:08:18.035Z,15.60
2018-09-05T11:10:46.875Z,13.83
2018-09-05T11:13:16.079Z,17.93
2018-09-05T11:15:44.771Z,13.40
2018-09-05T11:18:13.466Z,13.37
2018-09-05T11:20:42.380Z,15.93
2018-09-05T11:23:11.686Z,14.60
2018-09-05T11:25:41.160Z,12.80
2018-09-05T11:28:09.987Z,12.27
2018-09-05T11:30:39.262Z,14.27
2018-09-05T11:33:07.626Z,11.37
2018-09-05T11:35:37.016Z,13.80
2018-09-05T11:38:06.037Z,12.70
2018-09-05T11:40:35.282Z,14.63
2018-09-05T11:43:04.138Z,13.13
2018-09-05T11:45:33.311Z,12.57
2018-09-05T11:48:02.524Z,12.27
2018-09-05T11:50:31.376Z,15.83
2018-09-05T11:53:01.534Z,11.50
2018-09-05T11:55:30.477Z,15.47
2018-09-05T11:57:59.094Z,11.80
2018-09-05T12:00:28.909Z,11.50
2018-09-05T12:02:57.816Z,11.30
2018-09-05T12:05:26.352Z,11.87
2018-09-05T12:07:54.859Z,10.87
2018-09-05T12:10:23.384Z,10.70
2018-09-05T12:12:52.133Z,12.50
2018-09-05T12:15:20.998Z,12.13
2018-09-05T12:17:49.261Z,11.00
2018-09-05T12:20:18.249Z,10.30
2018-09-05T12:22:47.626Z,11.47
2018-09-05T12:25:16.390Z,11.20
2018-09-05T12:27:45.902Z,8.83
2018-09-05T12:30:14.822Z,10.03
2018-09-05T12:32:43.487Z,10.33
2018-09-05T12:35:11.901Z,10.70
2018-09-05T12:37:47.388Z,9.67
2018-09-05T12:40:15.928Z,9.23
2018-09-05T12:42:44.481Z,9.47
2018-09-05T12:45:13.023Z,8.10
2018-09-05T12:47:41.713Z,11.23
2018-09-05T12:50:12.308Z,12.50
2018-09-05T12:52:40.913Z,11.33
2018-09-05T12:55:09.403Z,11.40
2018-09-05T12:57:38.006Z,10.27
2018-09-05T13:00:06.763Z,11.00
2018-09-05T13:02:35.901Z,12.17
2018-09-05T13:05:04.821Z,12.17
2018-09-05T13:07:33.183Z,11.73
2018-09-05T13:10:01.888Z,13.47
2018-09-05T13:12:30.287Z,11.43
2018-09-05T13:14:59.084Z,11.93
2018-09-05T13:17:27.605Z,9.83
2018-09-05T13:19:56.239Z,10.20
2018-09-05T13:22:24.740Z,10.33
2018-09-05T13:24:53.353Z,9.87
2018-09-05T13:27:22.086Z,10.50
2018-09-05T13:29:50.747Z,10.93
2018-09-05T13:32:19.606Z,9.10
2018-09-05T13:34:48.312Z,9.13
2018-09-05T13:37:16.639Z,9.57
2018-09-05T13:39:46.777Z,10.33
2018-09-05T13:42:15.376Z,9.47
2018-09-05T13:44:43.842Z,10.03
2018-09-05T13:47:12.615Z,11.50
2018-09-05T13:49:41.192Z,12.03
2018-09-05T13:52:17.694Z,8.93
2018-09-05T13:54:46.259Z,9.37
2018-09-05T13:57:14.762Z,10.30
2018-09-05T13:59:48.392Z,10.60
2018-09-05T14:02:16.945Z,9.30
2018-09-05T14:04:45.325Z,9.80
2018-09-05T14:07:13.930Z,8.60
2018-09-05T14:09:42.886Z,9.30
2018-09-05T14:12:11.375Z,7.77
2018-09-05T14:14:40.125Z,10.00
2018-09-05T14:17:08.602Z,8.63
2018-09-05T14:19:37.030Z,8.33
2018-09-05T14:22:05.850Z,7.43
2018-09-05T14:24:34.554Z,7.60
2018-09-05T14:27:03.181Z,8.97
2018-09-05T14:29:32.479Z,9.00
2018-09-05T14:32:00.893Z,10.93
2018-09-05T14:34:29.416Z,7.80
2018-09-05T14:36:58.251Z,8.40
2018-09-05T14:39:27.419Z,10.40
2018-09-05T14:41:55.947Z,8.10
2018-09-05T14:44:25.236Z,8.53
2018-09-05T14:46:53.898Z,9.87
2018-09-05T14:49:22.668Z,10.33
2018-09-05T14:51:51.866Z,9.67
2018-09-05T14:54:20.386Z,10.40
2018-09-05T14:56:48.734Z,9.07
2018-09-05T14:59:17.485Z,9.60
2018-09-05T15:01:46.411Z,8.50
2018-09-05T15:04:14.951Z,8.77
2018-09-05T15:06:44.146Z,10.83
2018-09-05T15:09:13.468Z,9.97
2018-09-05T15:11:42.017Z,8.97
2018-09-05T15:14:11.177Z,9.60
2018-09-05T15:16:39.708Z,10.93
2018-09-05T15:19:08.424Z,10.30
2018-09-05T15:21:37.061Z,9.67
2018-09-05T15:24:05.885Z,10.33
2018-09-05T15:26:34.487Z,8.73
2018-09-05T15:29:03.026Z,12.90
2018-09-05T15:31:31.466Z,9.33
2018-09-05T15:33:59.842Z,8.53
2018-09-05T15:36:28.482Z,10.70
2018-09-05T15:38:57.152Z,8.37
2018-09-05T15:41:25.520Z,8.60
2018-09-05T15:43:54.050Z,8.47
2018-09-05T15:46:27.261Z,9.80
2018-09-05T15:48:55.979Z,7.53
2018-09-05T15:51:24.730Z,8.83
2018-09-05T15:53:53.233Z,9.93
2018-09-05T15:56:21.828Z,9.43
2018-09-05T15:58:50.743Z,9.63
2018-09-05T16:01:19.472Z,8.60
2018-09-05T16:03:47.962Z,10.57
2018-09-05T16:06:17.527Z,8.83
2018-09-05T16:08:46.191Z,7.13
2018-09-05T16:11:14.932Z,8.73
2018-09-05T16:13:43.671Z,10.60
2018-09-05T16:16:12.260Z,8.90
2018-09-05T16:18:41.739Z,9.10
2018-09-05T16:21:10.164Z,9.37
2018-09-05T16:23:40.161Z,9.80
2018-09-05T16:26:09.153Z,8.17
2018-09-05T16:28:37.650Z,8.97
2018-09-05T16:31:06.337Z,9.13
2018-09-05T16:33:34.957Z,9.37
2018-09-05T16:36:03.741Z,9.27
2018-09-05T16:38:32.348Z,10.00
2018-09-05T16:41:00.969Z,10.77
2018-09-05T16:43:29.647Z,10.00
2018-09-05T16:45:58.260Z,9.60
2018-09-05T16:48:26.898Z,8.20
2018-09-05T16:50:55.298Z,7.07
2018-09-05T16:53:23.841Z,10.20
2018-09-05T16:55:52.119Z,7.83
2018-09-05T16:58:20.769Z,8.17
2018-09-05T17:00:49.280Z,8.13
2018-09-05T17:03:24.431Z,6.67
2018-09-05T17:05:52.899Z,7.70
2018-09-05T17:08:21.393Z,7.73
2018-09-05T17:10:49.815Z,8.23
2018-09-05T17:13:18.415Z,8.67
2018-09-05T17:15:46.828Z,7.97
2018-09-05T17:18:15.213Z,11.13
2018-09-05T17:20:43.246Z,7.23
2018-09-05T17:23:11.910Z,10.17
2018-09-05T17:25:40.503Z,7.83
2018-09-05T17:28:09.071Z,9.53
2018-09-05T17:30:37.620Z,10.13
2018-09-05T17:33:06.239Z,9.60
2018-09-05T17:35:35.038Z,7.57
2018-09-05T17:38:03.740Z,9.67
2018-09-05T17:40:32.507Z,8.90
2018-09-05T17:43:01.133Z,10.03
2018-09-05T17:45:29.592Z,8.27
2018-09-05T17:47:58.265Z,9.10
2018-09-05T17:50:26.824Z,12.90
2018-09-05T17:52:55.930Z,8.00
2018-09-05T17:55:24.746Z,10.50
2018-09-05T17:57:53.326Z,9.13
2018-09-05T18:00:22.370Z,9.67
2018-09-05T18:02:51.110Z,10.20
2018-09-05T18:05:19.740Z,9.47
2018-09-05T18:07:48.392Z,9.13
2018-09-05T18:10:16.744Z,11.60
2018-09-05T18:12:45.519Z,14.30
2018-09-05T18:15:14.001Z,11.73
2018-09-05T18:17:42.538Z,8.47
2018-09-05T18:20:11.246Z,8.67
2018-09-05T18:22:39.638Z,8.87
2018-09-05T18:25:07.804Z,9.23
2018-09-05T18:27:36.215Z,10.07
2018-09-05T18:30:04.706Z,13.53
2018-09-05T18:32:34.549Z,9.30
2018-09-05T18:35:02.789Z,15.57
2018-09-05T18:37:31.097Z,11.80
2018-09-05T18:39:59.492Z,10.13
2018-09-05T18:42:27.927Z,9.43
2018-09-05T18:44:56.202Z,11.10
2018-09-05T18:47:24.502Z,9.57
2018-09-05T18:49:53.361Z,10.37
2018-09-05T18:52:22.550Z,12.83
2018-09-05T18:54:51.106Z,11.60
2018-09-05T18:57:19.603Z,14.63
2018-09-05T18:59:50.578Z,11.87
2018-09-05T19:02:21.989Z,8.53
2018-09-05T19:04:52.659Z,10.57
2018-09-05T19:07:21.670Z,15.43
2018-09-05T19:09:50.098Z,10.70
2018-09-05T19:12:18.406Z,10.43
2018-09-05T19:14:46.624Z,11.37
2018-09-05T19:17:15.107Z,12.97
2018-09-05T19:19:43.117Z,9.80
2018-09-05T19:22:11.227Z,13.90
2018-09-05T19:24:39.289Z,13.47
2018-09-05T19:27:07.832Z,11.40
2018-09-05T19:29:36.305Z,10.00
2018-09-05T19:32:04.742Z,12.20
2018-09-05T19:34:33.267Z,13.70
2018-09-05T19:37:01.856Z,11.10
2018-09-05T19:39:31.222Z,10.97
2018-09-05T19:41:59.736Z,13.60
2018-09-05T19:44:28.376Z,11.20
2018-09-05T19:46:57.031Z,10.73
2018-09-05T19:49:25.790Z,18.80
2018-09-05T19:51:54.238Z,14.00
2018-09-05T19:54:22.704Z,12.23
2018-09-05T19:56:51.122Z,13.60
2018-09-05T19:59:19.707Z,15.17
2018-09-05T20:01:48.121Z,11.37
2018-09-05T20:04:16.499Z,14.37
2018-09-05T20:06:44.607Z,16.53
2018-09-05T20:09:13.457Z,10.53
2018-09-05T20:11:43.918Z,11.77
2018-09-05T20:14:12.566Z,10.47
2018-09-05T20:16:41.120Z,11.83
2018-09-05T20:19:09.809Z,12.40
2018-09-05T20:21:38.416Z,12.57
2018-09-05T20:24:06.940Z,14.17
2018-09-05T20:26:35.418Z,13.33
2018-09-05T20:29:03.786Z,16.77
2018-09-05T20:31:32.107Z,12.37
2018-09-05T20:34:00.675Z,17.17
2018-09-05T20:36:29.276Z,12.00
2018-09-05T20:38:57.882Z,13.27
2018-09-05T20:41:26.394Z,10.83
2018-09-05T20:43:56.119Z,16.53
2018-09-05T20:46:24.497Z,13.60
2018-09-05T20:48:53.202Z,10.67
2018-09-05T20:51:21.793Z,15.20
2018-09-05T20:53:50.203Z,14.63
2018-09-05T20:56:18.576Z,12.47
2018-09-05T20:58:47.073Z,11.80
2018-09-05T21:01:15.567Z,12.00
2018-09-05T21:03:44.094Z,13.53
2018-09-05T21:06:12.450Z,12.17
2018-09-05T21:08:40.706Z,12.70
2018-09-05T21:11:09.343Z,16.53
2018-09-05T21:13:37.737Z,15.23
2018-09-05T21:16:06.181Z,13.70
2018-09-05T21:18:34.670Z,15.80
2018-09-05T21:21:02.918Z,10.17
2018-09-05T21:23:32.562Z,13.67
2018-09-05T21:26:01.062Z,15.07
2018-09-05T21:28:29.501Z,20.27
2018-09-05T21:30:57.971Z,10.53
2018-09-05T21:33:26.487Z,12.23
2018-09-05T21:35:55.119Z,12.77
2018-09-05T21:38:23.543Z,11.67
2018-09-05T21:40:51.893Z,13.70
2018-09-05T21:43:20.375Z,13.80
2018-09-05T21:45:48.919Z,14.40
2018-09-05T21:48:17.584Z,11.70
2018-09-05T21:50:46.056Z,14.50
2018-09-05T21:53:14.433Z,10.60
2018-09-05T21:55:43.003Z,13.53
2018-09-05T21:58:11.448Z,12.40
2018-09-05T22:00:39.946Z,12.93
2018-09-05T22:03:08.405Z,16.53
2018-09-05T22:05:36.775Z,12.80
2018-09-05T22:08:05.149Z,14.90
2018-09-05T22:10:33.563Z,11.10
2018-09-05T22:13:01.899Z,13.83
2018-09-05T22:15:48.946Z,10.20
2018-09-05T22:18:18.201Z,11.07
2018-09-05T22:20:46.980Z,12.63
2018-09-05T22:23:15.424Z,12.93
2018-09-05T22:25:43.871Z,12.37
2018-09-05T22:28:12.209Z,13.43
2018-09-05T22:30:40.532Z,18.63
2018-09-05T22:33:09.324Z,11.60
2018-09-05T22:35:37.683Z,11.80
2018-09-05T22:38:06.043Z,14.87
2018-09-05T22:40:39.752Z,11.77
2018-09-05T22:43:19.524Z,12.83
2018-09-05T22:45:59.178Z,12.80
2018-09-05T22:50:57.153Z,10.50
2018-09-05T22:53:45.046Z,10.17
2018-09-05T22:58:32.615Z,10.17
2018-09-05T23:01:13.501Z,12.40
2018-09-05T23:03:53.303Z,9.93
2018-09-05T23:06:50.898Z,10.87
2018-09-05T23:10:30.061Z,11.40
2018-09-05T23:13:09.886Z,12.03
2018-09-05T23:15:49.816Z,10.97
2018-09-05T23:18:29.253Z,11.73
2018-09-05T23:21:30.621Z,13.93
2018-09-05T23:24:03.137Z,11.93
2018-09-05T23:26:31.503Z,13.37
2018-09-05T23:29:00.057Z,13.63
2018-09-05T23:31:28.630Z,12.93
2018-09-05T23:33:56.987Z,12.13
2018-09-05T23:36:25.699Z,8.33
2018-09-05T23:38:54.084Z,10.80
2018-09-05T23:41:22.603Z,13.83
2018-09-05T23:43:51.124Z,11.90
2018-09-05T23:46:19.681Z,14.03
2018-09-05T23:48:48.607Z,10.67
2018-09-05T23:51:17.025Z,10.93
2018-09-05T23:53:45.379Z,13.87
2018-09-05T23:56:13.938Z,13.70
2018-09-05T23:58:42.436Z,10.97
